createdAt,value
2018-09-24T00:03:02.305Z,13.30
2018-09-24T00:08:05.674Z,13.20
2018-09-24T00:13:08.800Z,13.10
2018-09-24T00:18:11.890Z,13.00
2018-09-24T00:23:14.988Z,13.00
2018-09-24T00:28:18.096Z,12.90
2018-09-24T00:33:21.207Z,12.80
2018-09-24T00:38:24.310Z,12.70
2018-09-24T00:43:27.474Z,12.70
2018-09-24T00:48:30.529Z,12.60
2018-09-24T00:53:33.629Z,12.50
2018-09-24T00:58:36.731Z,12.50
2018-09-24T01:03:39.827Z,12.50
2018-09-24T01:08:42.964Z,12.40
2018-09-24T01:13:46.068Z,12.40
2018-09-24T01:18:49.168Z,12.30
2018-09-24T01:23:52.272Z,12.30
2018-09-24T01:28:55.387Z,12.20
2018-09-24T01:33:58.787Z,12.20
2018-09-24T01:39:01.892Z,12.10
2018-09-24T01:44:05.715Z,12.10
2018-09-24T01:49:08.792Z,12.10
2018-09-24T01:54:11.893Z,12.00
2018-09-24T01:59:15.001Z,12.00
2018-09-24T02:04:18.104Z,12.00
2018-09-24T02:09:21.212Z,11.90
2018-09-24T02:14:24.328Z,11.90
2018-09-24T02:19:27.424Z,11.80
2018-09-24T02:24:30.536Z,11.80
2018-09-24T02:29:33.654Z,11.70
2018-09-24T02:34:36.763Z,11.60
2018-09-24T02:39:39.884Z,11.60
2018-09-24T02:44:43.005Z,11.50
2018-09-24T02:49:46.110Z,11.40
2018-09-24T02:54:49.223Z,11.40
2018-09-24T02:59:52.335Z,11.30
2018-09-24T03:04:56.193Z,11.20
2018-09-24T03:09:59.297Z,11.10
2018-09-24T03:15:02.439Z,11.10
2018-09-24T03:20:05.549Z,11.00
2018-09-24T03:25:09.104Z,10.90
2018-09-24T03:30:12.220Z,10.90
2018-09-24T03:35:15.328Z,10.90
2018-09-24T03:40:18.433Z,10.80
2018-09-24T03:45:21.601Z,10.80
2018-09-24T03:50:24.719Z,10.80
2018-09-24T03:55:27.826Z,10.80
2018-09-24T04:00:30.953Z,10.70
2018-09-24T04:05:39.372Z,10.70
2018-09-24T04:10:48.007Z,10.70
2018-09-24T04:15:56.464Z,10.70
2018-09-24T04:21:05.164Z,10.60
2018-09-24T04:26:13.884Z,10.60
2018-09-24T04:31:22.481Z,10.50
2018-09-24T04:36:30.949Z,10.50
2018-09-24T04:41:39.476Z,10.40
2018-09-24T04:46:48.161Z,10.40
2018-09-24T04:51:56.796Z,10.40
2018-09-24T04:57:05.248Z,10.40
2018-09-24T05:02:13.652Z,10.30
2018-09-24T05:07:22.165Z,10.30
2018-09-24T05:12:30.668Z,10.30
2018-09-24T05:17:39.061Z,10.30
2018-09-24T05:22:47.461Z,10.30
2018-09-24T05:27:55.997Z,10.20
2018-09-24T05:33:04.427Z,10.20
2018-09-24T05:38:12.964Z,10.20
2018-09-24T05:43:21.551Z,10.20
2018-09-24T05:48:29.824Z,10.20
2018-09-24T05:53:38.356Z,10.20
2018-09-24T05:58:46.772Z,10.20
2018-09-24T06:03:55.436Z,10.20
2018-09-24T06:09:03.988Z,10.30
2018-09-24T06:14:12.416Z,10.30
2018-09-24T06:19:20.856Z,10.40
2018-09-24T06:24:29.360Z,10.40
2018-09-24T06:29:38.024Z,10.50
2018-09-24T06:34:46.652Z,10.50
2018-09-24T06:39:55.187Z,10.50
2018-09-24T06:45:03.692Z,10.60
2018-09-24T06:50:12.372Z,10.60
2018-09-24T06:55:20.863Z,10.70
2018-09-24T07:00:29.419Z,10.80
2018-09-24T07:05:37.928Z,11.10
2018-09-24T07:10:46.408Z,11.20
2018-09-24T07:15:55.064Z,11.50
2018-09-24T07:21:03.497Z,11.70
2018-09-24T07:26:12.078Z,12.00
2018-09-24T07:31:20.360Z,12.30
2018-09-24T07:36:28.972Z,12.50
2018-09-24T07:41:37.636Z,12.80
2018-09-24T07:46:46.119Z,13.00
2018-09-24T07:51:54.549Z,13.30
2018-09-24T07:57:02.828Z,13.50
2018-09-24T08:02:11.308Z,13.70
2018-09-24T08:07:19.920Z,13.80
2018-09-24T08:12:28.408Z,14.00
2018-09-24T08:17:37.059Z,14.10
2018-09-24T08:22:45.796Z,14.30
2018-09-24T08:27:54.207Z,14.50
2018-09-24T08:33:02.741Z,14.50
2018-09-24T08:38:11.241Z,14.40
2018-09-24T08:43:19.560Z,14.20
2018-09-24T08:48:27.964Z,14.00
2018-09-24T08:53:36.401Z,13.90
2018-09-24T08:58:44.812Z,13.70
2018-09-24T09:03:53.236Z,13.60
2018-09-24T09:09:01.621Z,13.50
2018-09-24T09:14:10.908Z,13.50
2018-09-24T09:19:19.440Z,13.40
2018-09-24T09:24:27.976Z,13.40
2018-09-24T09:29:36.413Z,13.40
2018-09-24T09:34:44.992Z,13.40
2018-09-24T09:39:53.401Z,13.40
2018-09-24T09:45:01.814Z,13.40
2018-09-24T09:50:10.647Z,13.40
2018-09-24T09:55:19.080Z,13.30
2018-09-24T10:00:27.352Z,13.30
2018-09-24T10:05:35.972Z,13.30
2018-09-24T10:10:44.619Z,13.40
2018-09-24T10:15:53.081Z,13.50
2018-09-24T10:21:01.457Z,13.70
2018-09-24T10:26:10.773Z,13.80
2018-09-24T10:31:19.053Z,13.80
2018-09-24T10:36:27.435Z,14.00
2018-09-24T10:41:36.020Z,14.20
2018-09-24T10:46:44.538Z,14.50
2018-09-24T10:51:53.088Z,14.60
2018-09-24T10:57:01.596Z,14.80
2018-09-24T11:02:10.584Z,14.90
2018-09-24T11:07:19.017Z,15.00
2018-09-24T11:12:27.432Z,15.20
2018-09-24T11:17:36.184Z,15.40
2018-09-24T11:22:44.572Z,15.40
2018-09-24T11:27:53.134Z,15.40
2018-09-24T11:33:01.741Z,15.60
2018-09-24T11:38:11.245Z,15.50
2018-09-24T11:43:19.797Z,15.50
2018-09-24T11:48:28.329Z,15.70
2018-09-24T11:53:36.737Z,15.80
2018-09-24T11:58:45.281Z,16.00
2018-09-24T12:03:53.559Z,16.20
2018-09-24T12:09:02.119Z,16.40
2018-09-24T12:14:10.851Z,16.60
2018-09-24T12:19:19.417Z,16.80
2018-09-24T12:24:27.824Z,17.00
2018-09-24T12:29:36.352Z,17.20
2018-09-24T12:34:44.756Z,17.40
2018-09-24T12:39:53.372Z,17.60
2018-09-24T12:45:01.985Z,17.80
2018-09-24T12:50:11.087Z,17.90
2018-09-24T12:55:19.373Z,18.00
2018-09-24T13:00:27.908Z,18.10
2018-09-24T13:05:36.413Z,18.20
2018-09-24T13:10:44.996Z,18.20
2018-09-24T13:15:53.491Z,18.20
2018-09-24T13:21:01.947Z,18.30
2018-09-24T13:26:10.848Z,18.40
2018-09-24T13:31:19.363Z,18.30
2018-09-24T13:36:27.844Z,18.30
2018-09-24T13:41:36.301Z,18.30
2018-09-24T13:46:44.896Z,18.30
2018-09-24T13:51:53.516Z,18.30
2018-09-24T13:57:02.252Z,18.30
2018-09-24T14:02:11.243Z,18.30
2018-09-24T14:07:19.829Z,18.20
2018-09-24T14:12:28.375Z,18.30
2018-09-24T14:17:36.885Z,18.20
2018-09-24T14:22:45.488Z,18.20
2018-09-24T14:27:54.056Z,18.20
2018-09-24T14:33:03.433Z,18.20
2018-09-24T14:38:11.919Z,18.00
2018-09-24T14:43:20.456Z,17.90
2018-09-24T14:48:28.921Z,17.70
2018-09-24T14:53:37.468Z,17.50
2018-09-24T14:58:45.881Z,17.50
2018-09-24T15:03:54.316Z,17.30
2018-09-24T15:09:02.678Z,17.20
2018-09-24T15:14:11.240Z,17.10
2018-09-24T15:19:19.820Z,17.00
2018-09-24T15:24:28.248Z,16.90
2018-09-24T15:29:36.656Z,16.80
2018-09-24T15:34:45.295Z,16.70
2018-09-24T15:39:53.848Z,16.60
2018-09-24T15:45:02.421Z,16.40
2018-09-24T15:50:10.664Z,16.30
2018-09-24T15:55:19.076Z,16.10
2018-09-24T16:00:27.609Z,16.00
2018-09-24T16:05:36.003Z,15.90
2018-09-24T16:10:44.410Z,15.80
2018-09-24T16:15:52.960Z,15.70
2018-09-24T16:21:01.378Z,15.70
2018-09-24T16:26:10.804Z,15.60
2018-09-24T16:31:19.130Z,15.50
2018-09-24T16:36:27.524Z,15.40
2018-09-24T16:41:35.951Z,15.30
2018-09-24T16:46:44.336Z,15.20
2018-09-24T16:51:52.849Z,15.10
2018-09-24T16:57:01.157Z,14.90
2018-09-24T17:02:09.589Z,14.80
2018-09-24T17:07:18.172Z,14.70
2018-09-24T17:12:26.593Z,14.60
2018-09-24T17:17:35.018Z,14.50
2018-09-24T17:22:43.449Z,14.40
2018-09-24T17:27:51.880Z,14.30
2018-09-24T17:33:00.440Z,14.20
2018-09-24T17:38:08.883Z,14.10
2018-09-24T17:43:17.464Z,14.00
2018-09-24T17:48:25.923Z,13.90
2018-09-24T17:53:34.351Z,13.80
2018-09-24T17:58:42.932Z,13.70
2018-09-24T18:03:51.289Z,13.60
2018-09-24T18:08:59.597Z,13.50
2018-09-24T18:14:08.107Z,13.40
2018-09-24T18:19:16.491Z,13.30
2018-09-24T18:24:24.916Z,13.20
2018-09-24T18:29:33.497Z,13.10
2018-09-24T18:34:41.941Z,13.00
2018-09-24T18:39:50.422Z,13.00
2018-09-24T18:44:58.748Z,12.90
2018-09-24T18:50:07.169Z,12.80
2018-09-24T18:55:15.604Z,12.70
2018-09-24T19:00:24.156Z,12.60
2018-09-24T19:05:32.683Z,12.50
2018-09-24T19:10:41.091Z,12.40
2018-09-24T19:15:49.664Z,12.40
2018-09-24T19:20:57.892Z,12.30
2018-09-24T19:26:06.373Z,12.20
2018-09-24T19:31:14.857Z,12.10
2018-09-24T19:36:23.412Z,12.10
2018-09-24T19:41:31.969Z,12.00
2018-09-24T19:46:40.459Z,11.90
2018-09-24T19:51:48.963Z,11.90
2018-09-24T19:56:57.397Z,11.80
2018-09-24T20:02:05.854Z,11.70
2018-09-24T20:07:14.263Z,11.70
2018-09-24T20:12:22.644Z,11.70
2018-09-24T20:17:31.180Z,11.70
2018-09-24T20:22:39.612Z,11.60
2018-09-24T20:27:48.173Z,11.60
2018-09-24T20:32:56.836Z,11.60
2018-09-24T20:38:05.312Z,11.60
2018-09-24T20:43:14.040Z,11.50
2018-09-24T20:48:22.629Z,11.50
2018-09-24T20:53:31.007Z,11.50
2018-09-24T20:58:39.654Z,11.50
2018-09-24T21:03:48.123Z,11.40
2018-09-24T21:08:56.556Z,11.40
2018-09-24T21:14:05.224Z,11.40
2018-09-24T21:19:13.725Z,11.40
2018-09-24T21:24:22.388Z,11.40
2018-09-24T21:29:31.063Z,11.40
2018-09-24T21:34:39.524Z,11.40
2018-09-24T21:39:48.209Z,11.40
2018-09-24T21:44:56.721Z,11.40
2018-09-24T21:50:05.224Z,11.30
2018-09-24T21:55:13.785Z,11.30
2018-09-24T22:00:22.245Z,11.20
2018-09-24T22:05:30.800Z,11.20
2018-09-24T22:10:46.208Z,11.10
2018-09-24T22:15:54.739Z,11.00
2018-09-24T22:21:03.396Z,11.00
2018-09-24T22:26:12.010Z,10.90
2018-09-24T22:31:20.419Z,10.80
2018-09-24T22:36:29.050Z,10.80
2018-09-24T22:41:37.328Z,10.70
2018-09-24T22:46:45.742Z,10.70
2018-09-24T22:51:54.173Z,10.60
2018-09-24T22:57:02.576Z,10.60
2018-09-24T23:02:11.660Z,10.50
2018-09-24T23:07:20.097Z,10.40
2018-09-24T23:12:28.607Z,10.40
2018-09-24T23:17:37.208Z,10.30
2018-09-24T23:22:45.600Z,10.30
2018-09-24T23:27:54.112Z,10.20
2018-09-24T23:33:02.560Z,10.20
2018-09-24T23:38:11.269Z,10.10
2018-09-24T23:43:19.628Z,10.10
2018-09-24T23:48:28.166Z,10.00
2018-09-24T23:53:36.741Z,10.00
2018-09-24T23:58:45.120Z,9.90
